Latest Weather Observations for Adelaide Airport

IDS60901

Issued at 2:31 pm CST Sunday 24 May 2015 (issued every 10 minutes, with the page automatically refreshed every 10 minutes)

About weather observations | Map of Adelaide area stations | Latest observations for Adelaide area | Other Formats
Station Details ID: 023034 Name: ADELAIDE AIRPORT Lat: -34.95 Lon: 138.52 Height: 2.0 m
Data from the previous 72 hours. | See also: Recent months at Adelaide Airport
Date/Time
CST
Tmp

°C
App
Tmp
°C
Dew
Point
°C
Rel
Hum
%
Delta-T

°C
Wind Press
QNH
hPa
Press
MSL
hPa
Rain
since
9 am
mm
Dir
 
Spd
km/h
Gust
km/h
Spd
kts
Gust
kts
24/02:00pm 16.7 13.8 6.7 51 4.9 N 11 13 6 7 1027.5 1027.5 0.0
24/01:30pm 16.6 13.5 5.5 48 5.3 N 11 13 6 7 1027.7 1027.7 0.0
24/01:00pm 16.8 13.5 6.3 50 5.1 N 13 19 7 10 1028.0 1028.0 0.0
24/12:30pm 15.8 11.7 6.3 53 4.6 N 17 22 9 12 1028.4 1028.4 0.0
24/12:00pm 15.6 11.7 5.5 51 4.8 N 15 22 8 12 1028.6 1028.6 0.0
24/11:30am 15.6 11.4 5.7 51 4.7 NNE 17 24 9 13 1028.8 1028.8 0.0
24/11:00am 14.5 11.6 6.6 59 3.8 N 11 15 6 8 1029.1 1029.1 0.0
24/10:30am 13.4 10.7 7.2 66 3.0 N 11 15 6 8 1029.1 1029.1 0.0
24/10:00am 13.2 9.9 6.5 64 3.2 NNE 13 17 7 9 1029.0 1029.0 0.0
24/09:30am 13.4 9.8 6.7 64 3.2 NNE 15 17 8 9 1029.2 1029.2 0.0
24/09:00am 12.9 9.3 6.6 65 3.0 NNE 15 17 8 9 1029.1 1029.1 0.0
24/08:30am 10.8 8.3 6.5 75 2.0 N 9 13 5 7 1028.9 1028.9 0.0
24/07:30am 7.8 4.9 4.8 81 1.3 NE 9 11 5 6 1028.4 1028.4 0.0
24/07:00am 7.3 4.4 4.5 82 1.2 NE 9 11 5 6 1028.4 1028.4 0.0
24/06:30am 7.4 4.9 4.9 84 1.1 ENE 7 9 4 5 1028.3 1028.3 0.0
24/05:30am 8.6 5.0 5.2 79 1.5 NE 13 13 7 7 1027.9 1027.9 0.0
24/05:00am 6.6 3.3 4.3 85 1.0 NNE 11 13 6 7 1027.8 1027.8 0.0
24/04:30am 6.1 2.4 4.5 89 0.7 NE 13 15 7 8 1027.6 1027.6 0.0
24/03:30am 5.9 3.1 5.0 94 0.4 ENE 9 9 5 5 1027.7 1027.7 0.0
24/03:00am 6.7 5.1 4.6 86 0.9 NE 2 6 1 3 1027.9 1027.9 0.0
24/02:30am 6.3 3.5 5.1 92 0.5 NE 9 11 5 6 1027.9 1027.9 0.0
24/02:00am 6.3 3.5 5.1 92 0.5 NE 9 9 5 5 1028.0 1028.0 0.0
24/01:30am 7.5 4.8 5.7 88 0.8 NE 9 11 5 6 1028.1 1028.1 0.0
24/01:00am 7.5 5.2 5.7 88 0.8 ENE 7 9 4 5 1028.2 1028.2 0.0
24/12:30am 7.2 4.5 5.6 89 0.7 E 9 11 5 6 1028.4 1028.4 0.0
 
Date/Time
CST
Tmp

°C
App
Tmp
°C
Dew
Point
°C
Rel
Hum
%
Delta-T

°C
Wind Press
QNH
hPa
Press
MSL
hPa
Rain
since
9 am
mm
Dir
 
Spd
km/h
Gust
km/h
Spd
kts
Gust
kts
23/11:30pm 9.5 6.7 6.9 84 1.2 NNE 11 13 6 7 1028.6 1028.6 0.0
23/11:00pm 10.1 6.5 6.9 80 1.5 NE 15 17 8 9 1028.5 1028.5 0.0
23/10:30pm 10.7 7.6 7.1 78 1.7 NNE 13 17 7 9 1028.7 1028.7 0.0
23/10:00pm 10.7 8.1 7.6 81 1.5 NNE 11 15 6 8 1028.9 1028.9 0.0
23/09:30pm 11.7 10.1 8.0 78 1.8 NNE 6 7 3 4 1029.2 1029.2 0.0
23/09:00pm 11.1 9.4 8.2 82 1.4 NW 7 9 4 5 1028.9 1028.9 0.0
23/08:30pm 10.1 9.3 8.0 87 1.0 ENE 2 7 1 4 1028.7 1028.7 0.0
23/08:00pm 9.9 8.0 7.4 84 1.2 NE 7 9 4 5 1028.8 1028.8 0.0
23/07:30pm 10.4 9.1 7.7 83 1.3 ENE 4 6 2 3 1028.9 1028.9 0.0
23/07:00pm 10.6 8.8 8.1 84 1.2 ESE 7 7 4 4 1028.7 1028.7 0.0
23/06:30pm 11.1 9.5 8.2 82 1.4 ESE 6 6 3 3 1028.7 1028.7 0.0
23/05:30pm 12.1 10.0 8.2 77 1.9 S 9 9 5 5 1028.8 1028.8 0.0
23/05:00pm 12.8 11.1 8.3 74 2.2 SW 7 9 4 5 1028.9 1028.9 0.0
23/04:30pm 13.9 11.7 8.0 67 2.9 WSW 9 11 5 6 1028.8 1028.8 0.0
23/04:00pm 14.5 12.2 7.3 62 3.5 WSW 9 11 5 6 1028.9 1028.9 0.0
23/03:30pm 14.8 12.1 7.2 60 3.7 SW 11 11 6 6 1029.0 1029.0 0.0
23/03:00pm 14.7 11.7 7.6 62 3.5 SW 13 15 7 8 1029.2 1029.2 0.0
23/02:30pm 14.9 11.5 7.8 62 3.5 WSW 15 19 8 10 1029.3 1029.3 0.0
23/02:00pm 15.2 11.8 7.5 60 3.8 WSW 15 19 8 10 1029.3 1029.3 0.0
23/01:30pm 14.9 12.6 7.3 60 3.7 WSW 9 15 5 8 1029.5 1029.5 0.0
23/01:00pm 14.3 11.6 7.3 63 3.4 SW 11 13 6 7 1029.7 1029.7 0.0
23/12:30pm 14.2 11.4 6.9 61 3.5 WSW 11 13 6 7 1030.2 1030.2 0.0
23/12:00pm 13.6 10.5 7.2 65 3.1 WSW 13 17 7 9 1030.8 1030.8 0.0
23/11:30am 14.8 13.1 7.4 61 3.6 WNW 6 9 3 5 1031.4 1031.4 0.0
23/11:00am 13.9 13.2 7.1 63 3.3 CALM 0 4 0 2 1031.8 1031.8 0.0
23/10:30am 13.3 11.4 6.6 64 3.2 NW 6 11 3 6 1032.1 1032.1 0.0
23/10:00am 11.9 10.0 6.8 71 2.4 WNW 6 9 3 5 1032.1 1032.1 0.0
23/09:30am 11.8 9.9 6.5 70 2.5 NW 6 7 3 4 1032.3 1032.3 0.0
23/09:00am 9.8 9.0 6.3 79 1.6 CALM 0 0 0 0 1032.2 1032.2 0.0
23/08:30am 8.8 8.1 6.8 87 0.9 CALM 0 0 0 0 1032.0 1032.0 0.0
23/08:00am 6.3 5.2 4.9 91 0.6 CALM 0 0 0 0 1032.0 1032.0 0.0
23/07:30am 4.5 3.0 3.0 90 0.6 CALM 0 0 0 0 1031.9 1031.9 0.0
23/07:00am 4.3 2.9 3.6 95 0.3 CALM 0 0 0 0 1031.5 1031.5 0.0
23/06:30am 4.0 2.6 3.3 95 0.3 CALM 0 0 0 0 1031.3 1031.3 0.0
23/06:28am 4.1 2.6 3.1 93 0.4 CALM 0 0 0 0 1031.3 1031.3 0.0
23/06:00am 4.0 2.6 3.3 95 0.3 CALM 0 0 0 0 1031.3 1031.3 0.0
23/05:56am 3.9 2.4 3.2 95 0.3 CALM 0 0 0 0 1031.2 1031.2 0.0
23/05:30am 4.3 2.9 3.6 95 0.3 CALM 0 0 0 0 1031.1 1031.1 0.0
23/05:00am 4.3 2.9 3.3 93 0.4 CALM 0 0 0 0 1030.9 1030.9 0.0
23/04:41am 4.7 3.3 3.7 93 0.4 CALM 0 0 0 0 1030.8 1030.8 0.0
23/04:30am 4.5 3.1 3.3 92 0.5 CALM 0 0 0 0 1030.9 1030.9 0.0
23/04:00am 4.3 2.9 3.3 93 0.4 CALM 0 0 0 0 1031.1 1031.1 0.0
23/03:30am 3.9 2.4 3.2 95 0.3 CALM 0 0 0 0 1031.2 1031.2 0.0
23/03:00am 5.0 3.7 4.3 95 0.3 CALM 0 0 0 0 1031.4 1031.4 0.0
23/02:30am 4.9 3.6 3.9 93 0.4 CALM 0 0 0 0 1031.6 1031.6 0.0
23/02:00am 5.4 4.1 4.0 91 0.6 CALM 0 0 0 0 1031.6 1031.6 0.0
23/01:30am 5.4 4.1 4.2 92 0.5 CALM 0 0 0 0 1031.7 1031.7 0.0
23/01:00am 6.2 5.0 4.6 89 0.7 CALM 0 0 0 0 1031.5 1031.5 0.0
23/12:30am 6.2 5.1 5.3 94 0.4 CALM 0 0 0 0 1031.6 1031.6 0.0
23/12:00am 6.5 5.5 5.4 93 0.5 CALM 0 0 0 0 1031.7 1031.7 0.0
 
Date/Time
CST
Tmp

°C
App
Tmp
°C
Dew
Point
°C
Rel
Hum
%
Delta-T

°C
Wind Press
QNH
hPa
Press
MSL
hPa
Rain
since
9 am
mm
Dir
 
Spd
km/h
Gust
km/h
Spd
kts
Gust
kts
22/11:30pm 5.5 4.1 3.8 89 0.7 CALM 0 0 0 0 1031.8 1031.8 0.0
22/11:00pm 7.5 5.7 5.5 87 0.9 E 4 7 2 4 1031.8 1031.8 0.0
22/10:30pm 7.4 5.0 5.4 87 0.9 E 7 7 4 4 1031.8 1031.8 0.0
22/10:00pm 8.3 5.6 5.6 83 1.2 E 9 9 5 5 1032.0 1032.0 0.0
22/09:30pm 8.7 5.9 5.3 79 1.5 SE 9 9 5 5 1031.9 1031.9 0.0
22/09:00pm 8.6 5.8 5.2 79 1.5 S 9 11 5 6 1031.9 1031.9 0.0
22/08:30pm 9.7 6.9 5.2 73 2.0 S 9 11 5 6 1031.9 1031.9 0.0
22/08:00pm 11.1 7.9 4.9 65 2.8 S 11 13 6 7 1031.8 1031.8 0.0
22/07:30pm 10.5 7.3 5.2 70 2.4 SSE 11 17 6 9 1031.7 1031.7 0.0
22/07:00pm 11.2 7.7 5.3 67 2.7 SSE 13 15 7 8 1031.7 1031.7 0.0
22/06:30pm 11.8 7.5 5.2 64 3.0 SE 17 26 9 14 1031.5 1031.5 0.0
22/06:00pm 12.2 7.4 5.5 63 3.1 SE 20 26 11 14 1031.3 1031.3 0.0
22/05:30pm 13.1 8.5 5.6 60 3.5 SSE 19 24 10 13 1031.3 1031.3 0.0
22/05:00pm 13.7 9.1 5.6 58 3.8 SE 19 26 10 14 1031.2 1031.2 0.0
22/04:30pm 14.1 9.5 5.8 57 3.9 SE 19 24 10 13 1031.2 1031.2 0.0
22/04:00pm 14.6 10.1 6.2 57 4.0 SE 19 24 10 13 1031.2 1031.2 0.0
22/03:30pm 14.9 10.4 6.1 55 4.2 SSE 19 26 10 14 1031.1 1031.1 0.0
22/03:00pm 15.3 11.5 5.8 53 4.5 SSE 15 26 8 14 1030.9 1030.9 0.0
22/02:30pm 15.0 10.4 5.4 52 4.5 SE 19 22 10 12 1030.9 1030.9 0.0
22/02:00pm 15.3 11.9 5.8 53 4.5 SE 13 24 7 13 1030.9 1030.9 0.0
22/01:30pm 15.5 12.1 5.8 52 4.6 SE 13 19 7 10 1031.1 1031.1 0.0
22/01:00pm 15.4 11.4 6.5 55 4.3 SSE 17 20 9 11 1031.2 1031.2 0.0
22/12:30pm 15.2 11.8 6.0 54 4.4 SSE 13 19 7 10 1031.4 1031.4 0.0
22/12:00pm 15.6 11.8 6.0 53 4.6 SE 15 20 8 11 1031.5 1031.5 0.0
22/11:30am 15.3 11.2 6.3 55 4.3 SE 17 22 9 12 1031.9 1031.9 0.0
22/11:00am 15.0 10.3 6.2 55 4.2 ESE 20 30 11 16 1032.2 1032.2 0.0
22/10:30am 14.4 10.7 6.2 58 3.9 ESE 15 19 8 10 1032.3 1032.3 0.0
22/10:00am 13.7 9.6 6.3 61 3.5 SE 17 26 9 14 1032.3 1032.3 0.0
22/09:30am 13.4 9.0 7.4 67 2.9 SE 20 28 11 15 1031.8 1031.8 0.0
22/09:00am 13.1 10.8 7.3 68 2.8 SE 9 13 5 7 1031.8 1031.8 0.0
22/08:30am 12.2 9.9 7.6 73 2.2 SSE 9 13 5 7 1031.7 1031.7 0.0
22/08:00am 11.1 8.7 7.1 76 1.9 SE 9 17 5 9 1031.5 1031.5 0.0
22/07:30am 10.4 8.0 7.2 80 1.5 ESE 9 19 5 10 1031.2 1031.2 0.0
22/07:00am 10.5 5.8 7.8 83 1.3 SE 22 32 12 17 1030.9 1030.9 0.0
22/06:30am 10.9 8.8 8.2 83 1.3 SSE 9 13 5 7 1030.4 1030.4 0.0
22/06:00am 10.3 7.8 8.4 88 0.9 SE 11 15 6 8 1030.1 1030.1 0.0
22/05:30am 8.5 7.6 7.6 94 0.4 SE 2 7 1 4 1029.9 1029.9 0.0
22/05:00am 7.2 4.7 6.5 95 0.3 SE 9 9 5 5 1029.7 1029.7 0.0
22/04:30am 6.5 4.4 5.6 94 0.4 ENE 6 7 3 4 1029.7 1029.7 0.0
22/04:00am 6.9 4.8 6.0 94 0.4 NE 6 7 3 4 1029.6 1029.6 0.0
22/03:30am 7.4 6.6 6.7 95 0.3 CALM 0 0 0 0 1029.5 1029.5 0.0
22/03:00am 6.8 5.5 6.1 95 0.3 ENE 2 7 1 4 1029.7 1029.7 0.0
22/02:46am 6.8 4.8 6.4 97 0.2 ENE 6 7 3 4 1029.7 1029.7 0.0
22/02:30am 7.4 6.3 6.7 95 0.3 SSE 2 7 1 4 1029.7 1029.7 0.0
22/02:00am 7.2 5.1 6.5 95 0.3 WSW 7 7 4 4 1029.7 1029.7 0.0
22/01:30am 7.5 6.8 6.8 95 0.3 CALM 0 0 0 0 1029.6 1029.6 0.0
22/01:00am 7.5 6.8 6.8 95 0.3 CALM 0 0 0 0 1029.6 1029.6 0.0
22/12:30am 7.7 6.9 6.6 93 0.5 CALM 0 0 0 0 1029.8 1029.8 0.0
22/12:00am 7.9 7.2 7.0 94 0.4 CALM 0 0 0 0 1029.7 1029.7 0.0
 
Date/Time
CST
Tmp

°C
App
Tmp
°C
Dew
Point
°C
Rel
Hum
%
Delta-T

°C
Wind Press
QNH
hPa
Press
MSL
hPa
Rain
since
9 am
mm
Dir
 
Spd
km/h
Gust
km/h
Spd
kts
Gust
kts
21/11:30pm 8.2 7.6 7.3 94 0.4 CALM 0 0 0 0 1029.6 1029.6 0.0
21/11:00pm 9.2 8.3 7.7 90 0.7 SE 2 6 1 3 1029.8 1029.8 0.0
21/10:30pm 9.2 6.5 7.5 89 0.8 SE 11 13 6 7 1029.8 1029.8 0.0
21/10:00pm 9.0 7.1 7.7 91 0.6 SE 7 9 4 5 1029.9 1029.9 0.0
21/09:30pm 9.1 8.5 7.4 89 0.8 CALM 0 0 0 0 1029.9 1029.9 0.0
21/09:00pm 9.5 7.8 7.4 87 1.0 SSE 6 9 3 5 1029.9 1029.9 0.0
21/08:30pm 9.5 6.4 7.1 85 1.1 SE 13 15 7 8 1029.7 1029.7 0.0
21/08:00pm 9.7 6.9 6.9 83 1.3 SE 11 13 6 7 1029.4 1029.4 0.0
21/07:30pm 10.4 7.7 7.2 80 1.5 SSE 11 13 6 7 1029.3 1029.3 0.0
21/07:00pm 9.8 7.0 6.8 81 1.4 SSE 11 13 6 7 1029.1 1029.1 0.0
21/06:30pm 11.4 8.5 6.7 73 2.2 SE 11 15 6 8 1028.9 1028.9 0.0
21/06:00pm 12.5 9.6 6.3 66 2.9 S 11 19 6 10 1028.6 1028.6 0.0
21/05:30pm 12.8 9.6 6.7 66 2.9 SSE 13 15 7 8 1028.1 1028.1 0.0
21/05:00pm 12.1 9.5 6.3 67 2.7 S 9 11 5 6 1027.8 1027.8 0.0
21/04:30pm 13.2 9.0 5.5 59 3.6 SSE 17 24 9 13 1027.6 1027.6 0.0
21/04:00pm 13.7 9.0 5.1 56 4.0 SSW 19 24 10 13 1027.3 1027.3 0.0
21/03:30pm 14.8 10.4 4.9 51 4.6 SW 17 26 9 14 1027.2 1027.2 0.0
21/03:00pm 14.8 9.6 5.4 53 4.4 SW 22 30 12 16 1027.1 1027.1 0.0

Latest Capital City Observations: Canberra | Sydney | Melbourne | Brisbane | Adelaide | Perth | Hobart | Darwin

Other Formats:

Comma delimited format used in spreadsheet applications
http://www.bom.gov.au/fwo/IDS60901/IDS60901.94672.axf

JavaScript Object Notation format (JSON) in row-major order
http://www.bom.gov.au/fwo/IDS60901/IDS60901.94672.json